< < Back
Terminal Aerodrome Forecast


Current Version              Previous Versions:   1  2  3  4  5  6  7  8  9  

Terminal Aerodrome Forecast

755
FTUS42 KJAX 270520
TAFGNV
TAF
KGNV 270520Z 2706/2806 00000KT 6SM BR SCT015 SCT100 BKN200
     FM271400 02006KT P6SM SCT040 SCT080
     FM271900 05008KT P6SM VCTS SCT040CB BKN080
     FM280000 VRB02KT P6SM FEW050 SCT100 SCT250=

Latest METAR

883
SAUS70 KWBC 270500 RRA
MTRGNV
METAR KGNV 270453Z AUTO 00000KT 10SM CLR 23/22 A3009 RMK AO2 SLP185
T02330217 403170228


USA.gov is the U.S. government's official web portal to all federal, state and local government web resources and services.